createdAt,value
2022-12-03T00:04:14.619Z,17.80
2022-12-03T00:09:18.313Z,18.87
2022-12-03T00:14:22.133Z,17.67
2022-12-03T00:19:27.718Z,18.45
2022-12-03T00:24:31.365Z,19.02
2022-12-03T00:29:35.083Z,18.48
2022-12-03T00:34:40.098Z,19.92
2022-12-03T00:39:43.774Z,18.23
2022-12-03T00:44:47.486Z,19.80
2022-12-03T00:49:52.859Z,19.48
2022-12-03T00:54:57.073Z,20.15
2022-12-03T01:00:01.034Z,19.10
2022-12-03T01:05:07.330Z,20.23
2022-12-03T01:10:13.786Z,21.90
2022-12-03T01:15:17.585Z,20.92
2022-12-03T01:20:23.027Z,21.52
2022-12-03T01:25:26.725Z,22.13
2022-12-03T01:30:50.554Z,20.33
2022-12-03T01:35:55.636Z,20.55
2022-12-03T01:40:59.684Z,21.25
2022-12-03T01:46:03.697Z,21.42
2022-12-03T01:51:09.314Z,21.27
2022-12-03T01:56:15.613Z,21.52
2022-12-03T02:01:20.365Z,21.98
2022-12-03T02:06:29.738Z,22.17
2022-12-03T02:11:36.668Z,22.45
2022-12-03T02:16:42.315Z,22.73
2022-12-03T02:21:55.885Z,23.33
2022-12-03T02:27:00.962Z,22.05
2022-12-03T02:32:04.896Z,22.87
2022-12-03T02:37:12.674Z,23.58
2022-12-03T02:42:37.034Z,23.67
2022-12-03T02:47:44.219Z,23.87
2022-12-03T02:52:48.933Z,24.48
2022-12-03T02:57:54.380Z,23.77
2022-12-03T03:02:58.433Z,23.33
2022-12-03T03:08:03.020Z,24.75
2022-12-03T03:13:11.185Z,23.75
2022-12-03T03:23:23.870Z,24.67
2022-12-03T03:28:30.850Z,23.27
2022-12-03T03:33:35.594Z,24.23
2022-12-03T03:38:40.162Z,24.37
2022-12-03T03:43:46.918Z,24.48
2022-12-03T03:48:52.171Z,23.60
2022-12-03T03:53:56.275Z,24.55
2022-12-03T03:59:01.513Z,25.58
2022-12-03T04:04:08.652Z,26.08
2022-12-03T04:09:12.559Z,18.50
2022-12-03T04:14:17.608Z,25.67
2022-12-03T04:19:21.352Z,24.25
2022-12-03T04:24:25.095Z,24.95
2022-12-03T04:29:30.150Z,25.37
2022-12-03T04:35:03.429Z,25.33
2022-12-03T04:40:28.493Z,24.40
2022-12-03T04:45:33.541Z,25.12
2022-12-03T04:50:37.331Z,25.80
2022-12-03T04:55:41.772Z,25.73
2022-12-03T05:00:46.868Z,26.52
2022-12-03T05:05:50.558Z,25.48
2022-12-03T05:10:54.298Z,25.77
2022-12-03T05:15:59.858Z,26.62
2022-12-03T05:21:03.811Z,25.67
2022-12-03T05:26:08.738Z,26.90
2022-12-03T05:31:13.920Z,25.77
2022-12-03T05:36:17.750Z,26.85
2022-12-03T05:41:38.999Z,25.85
2022-12-03T05:46:44.089Z,25.42
2022-12-03T05:51:47.908Z,25.83
2022-12-03T05:56:51.690Z,27.55
2022-12-03T06:01:56.732Z,28.00
2022-12-03T06:07:00.451Z,25.77
2022-12-03T06:12:06.410Z,26.23
2022-12-03T06:17:11.608Z,25.77
2022-12-03T06:22:15.419Z,25.33
2022-12-03T06:27:19.184Z,26.98
2022-12-03T06:32:24.263Z,25.75
2022-12-03T06:37:27.958Z,24.67
2022-12-03T06:42:31.653Z,25.62
2022-12-03T06:47:36.702Z,24.85
2022-12-03T06:52:40.573Z,26.10
2022-12-03T06:57:44.258Z,25.10
2022-12-03T07:02:49.388Z,24.73
2022-12-03T07:07:55.360Z,24.35
2022-12-03T07:12:59.188Z,24.48
2022-12-03T07:18:04.185Z,26.52
2022-12-03T07:23:07.861Z,25.42
2022-12-03T07:28:11.560Z,26.10
2022-12-03T07:33:16.595Z,24.45
2022-12-03T07:38:20.399Z,26.12
2022-12-03T07:43:24.074Z,25.58
2022-12-03T07:48:29.169Z,25.77
2022-12-03T07:53:32.845Z,25.12
2022-12-03T07:58:36.618Z,23.85
2022-12-03T08:03:42.895Z,25.98
2022-12-03T08:08:46.642Z,25.15
2022-12-03T08:13:50.314Z,24.55
2022-12-03T08:18:57.445Z,24.20
2022-12-03T08:24:13.681Z,24.48
2022-12-03T08:29:20.140Z,22.87
2022-12-03T08:34:28.397Z,23.17
2022-12-03T08:39:34.295Z,24.02
2022-12-03T08:44:40.963Z,23.58
2022-12-03T08:49:50.960Z,24.67
2022-12-03T08:54:57.956Z,23.85
2022-12-03T09:00:11.106Z,24.35
2022-12-03T09:05:21.930Z,23.67
2022-12-03T09:10:25.644Z,24.90
2022-12-03T09:15:29.880Z,24.52
2022-12-03T09:20:35.001Z,24.08
2022-12-03T09:25:38.780Z,24.00
2022-12-03T09:30:42.480Z,25.58
2022-12-03T09:35:47.504Z,24.80
2022-12-03T09:40:51.327Z,25.73
2022-12-03T09:45:55.325Z,26.20
2022-12-03T09:51:00.431Z,26.05
2022-12-03T09:56:04.193Z,25.98
2022-12-03T10:01:13.626Z,25.10
2022-12-03T10:06:20.870Z,24.80
2022-12-03T10:11:26.133Z,24.73
2022-12-03T10:16:30.493Z,26.73
2022-12-03T10:21:38.050Z,26.30
2022-12-03T10:26:42.021Z,27.83
2022-12-03T10:31:47.392Z,27.23
2022-12-03T10:37:10.393Z,27.25
2022-12-03T10:42:16.835Z,26.15
2022-12-03T10:47:24.953Z,27.25
2022-12-03T10:57:33.696Z,24.80
2022-12-03T11:02:37.476Z,26.60
2022-12-03T11:07:43.859Z,24.50
2022-12-03T11:13:21.096Z,24.73
2022-12-03T11:19:00.059Z,28.03
2022-12-03T11:24:17.442Z,28.65
2022-12-03T11:29:48.896Z,28.20
2022-12-03T11:34:52.977Z,28.25
2022-12-03T11:40:39.172Z,28.25
2022-12-03T11:45:43.482Z,26.90
2022-12-03T11:50:52.765Z,27.30
2022-12-03T11:56:08.904Z,25.70
2022-12-03T12:01:14.206Z,22.10
2022-12-03T12:06:19.523Z,22.67
2022-12-03T12:11:28.269Z,21.92
2022-12-03T12:16:40.955Z,21.55
2022-12-03T12:21:47.780Z,21.30
2022-12-03T12:26:53.150Z,20.00
2022-12-03T12:32:03.389Z,20.92
2022-12-03T12:37:12.022Z,20.05
2022-12-03T12:42:31.035Z,20.00
2022-12-03T12:47:36.413Z,18.77
2022-12-03T12:52:59.997Z,19.20
2022-12-03T12:58:12.593Z,21.23
2022-12-03T13:03:19.018Z,20.25
2022-12-03T13:08:26.748Z,20.40
2022-12-03T13:13:43.546Z,20.65
2022-12-03T13:18:49.738Z,22.03
2022-12-03T13:23:56.112Z,21.60
2022-12-03T13:29:07.426Z,20.52
2022-12-03T13:34:17.243Z,22.50
2022-12-03T13:39:24.811Z,21.02
2022-12-03T13:44:31.775Z,21.95
2022-12-03T13:49:35.863Z,21.05
2022-12-03T13:54:40.272Z,20.95
2022-12-03T13:59:45.306Z,20.73
2022-12-03T14:04:49.003Z,24.23
2022-12-03T14:09:52.982Z,25.15
2022-12-03T14:14:58.327Z,23.33
2022-12-03T14:20:02.110Z,24.08
2022-12-03T14:25:06.820Z,23.23
2022-12-03T14:30:13.077Z,23.05
2022-12-03T14:35:16.996Z,23.23
2022-12-03T14:40:22.253Z,23.80
2022-12-03T14:45:28.797Z,25.85
2022-12-03T14:50:32.693Z,24.02
2022-12-03T14:55:36.439Z,26.65
2022-12-03T15:00:41.473Z,26.42
2022-12-03T15:05:45.373Z,26.50
2022-12-03T15:10:49.156Z,25.58
2022-12-03T15:15:54.376Z,26.58
2022-12-03T15:20:58.195Z,24.30
2022-12-03T15:26:02.085Z,26.35
2022-12-03T15:31:07.339Z,25.02
2022-12-03T15:36:11.204Z,25.83
2022-12-03T15:41:24.714Z,25.27
2022-12-03T15:46:31.344Z,24.92
2022-12-03T15:51:35.215Z,26.05
2022-12-03T15:56:38.902Z,25.42
2022-12-03T16:01:44.098Z,26.12
2022-12-03T16:06:47.840Z,27.02
2022-12-03T16:11:51.598Z,25.83
2022-12-03T16:16:58.819Z,27.75
2022-12-03T16:22:02.584Z,27.20
2022-12-03T16:27:06.411Z,28.00
2022-12-03T16:32:11.522Z,26.90
2022-12-03T16:37:15.194Z,27.92
2022-12-03T16:42:24.703Z,27.75
2022-12-03T16:47:33.838Z,29.70
2022-12-03T16:52:37.950Z,29.65
2022-12-03T16:57:41.669Z,29.33
2022-12-03T17:02:46.863Z,29.60
2022-12-03T17:07:50.688Z,29.75
2022-12-03T17:13:09.382Z,28.48
2022-12-03T17:18:15.311Z,28.08
2022-12-03T17:23:19.088Z,29.20
2022-12-03T17:28:22.782Z,28.33
2022-12-03T17:33:27.824Z,29.25
2022-12-03T17:38:37.310Z,31.58
2022-12-03T17:43:42.942Z,29.95
2022-12-03T17:48:48.003Z,29.73
2022-12-03T17:53:51.914Z,29.92
2022-12-03T17:58:57.139Z,30.65
2022-12-03T18:04:02.335Z,29.27
2022-12-03T18:09:06.538Z,29.92
2022-12-03T18:14:10.341Z,30.50
2022-12-03T18:19:15.401Z,29.10
2022-12-03T18:24:19.284Z,28.77
2022-12-03T18:29:23.073Z,28.33
2022-12-03T18:34:28.129Z,29.10
2022-12-03T18:39:36.613Z,29.20
2022-12-03T18:44:43.825Z,28.55
2022-12-03T18:49:53.559Z,29.30
2022-12-03T18:54:57.727Z,27.37
2022-12-03T19:00:01.511Z,28.52
2022-12-03T19:05:07.735Z,29.55
2022-12-03T19:10:12.821Z,30.20
2022-12-03T19:15:16.973Z,28.23
2022-12-03T19:20:22.174Z,28.35
2022-12-03T19:25:25.957Z,31.35
2022-12-03T19:30:29.674Z,29.98
2022-12-03T19:35:40.177Z,31.95
2022-12-03T19:40:43.927Z,31.90
2022-12-03T19:45:47.711Z,32.30
2022-12-03T19:51:07.847Z,34.03
2022-12-03T19:56:20.034Z,33.88
2022-12-03T20:01:26.469Z,31.62
2022-12-03T20:06:33.617Z,34.85
2022-12-03T20:11:37.513Z,34.47
2022-12-03T20:16:41.439Z,34.80
2022-12-03T20:21:46.692Z,33.53
2022-12-03T20:26:50.431Z,34.67
2022-12-03T20:31:54.188Z,35.70
2022-12-03T20:36:59.287Z,35.38
2022-12-03T20:42:03.092Z,33.13
2022-12-03T20:47:07.119Z,35.92
2022-12-03T20:52:12.614Z,35.22
2022-12-03T20:57:16.422Z,35.95
2022-12-03T21:02:20.243Z,34.80
2022-12-03T21:07:25.389Z,36.58
2022-12-03T21:12:29.157Z,35.95
2022-12-03T21:17:32.903Z,36.28
2022-12-03T21:22:38.188Z,35.28
2022-12-03T21:27:41.872Z,35.38
2022-12-03T21:32:45.594Z,34.45
2022-12-03T21:37:51.634Z,36.55
2022-12-03T21:42:55.375Z,36.05
2022-12-03T21:47:59.183Z,37.45
2022-12-03T21:53:04.890Z,35.17
2022-12-03T21:58:08.808Z,36.17
2022-12-03T22:03:12.670Z,36.72
2022-12-03T22:08:17.945Z,36.88
2022-12-03T22:13:21.694Z,35.83
2022-12-03T22:18:25.405Z,39.13
2022-12-03T22:23:30.789Z,36.60
2022-12-03T22:28:35.971Z,38.55
2022-12-03T22:33:40.072Z,37.90
2022-12-03T22:38:45.310Z,39.55
2022-12-03T22:43:49.850Z,40.42
2022-12-03T22:48:53.630Z,39.58
2022-12-03T22:54:00.092Z,40.47
2022-12-03T22:59:04.183Z,39.70
2022-12-03T23:04:09.307Z,41.42
2022-12-03T23:09:14.467Z,40.70
2022-12-03T23:14:18.244Z,39.90
2022-12-03T23:19:22.593Z,39.63
2022-12-03T23:24:28.629Z,39.40
2022-12-03T23:29:32.350Z,38.50
2022-12-03T23:34:36.143Z,39.83
2022-12-03T23:39:41.599Z,41.70
2022-12-03T23:44:45.410Z,42.88
2022-12-03T23:49:49.137Z,39.88
2022-12-03T23:54:54.158Z,41.13
2022-12-03T23:59:57.864Z,40.63
